sensor_id;sensor_type;location;lat;lon;timestamp;P1;durP1;ratioP1;P2;durP2;ratioP2
42632;SDS011;28261;53.304;-6.284;2022-12-18T00:00:33;28.77;;;10.88;;
42632;SDS011;28261;53.304;-6.284;2022-12-18T00:02:36;33.75;;;15.55;;
42632;SDS011;28261;53.304;-6.284;2022-12-18T00:04:42;27.92;;;12.55;;
42632;SDS011;28261;53.304;-6.284;2022-12-18T00:06:47;36.45;;;13.90;;
42632;SDS011;28261;53.304;-6.284;2022-12-18T00:08:51;33.08;;;12.52;;
42632;SDS011;28261;53.304;-6.284;2022-12-18T00:10:55;31.95;;;13.05;;
42632;SDS011;28261;53.304;-6.284;2022-12-18T00:13:08;30.95;;;12.20;;
42632;SDS011;28261;53.304;-6.284;2022-12-18T00:15:12;28.23;;;13.40;;
42632;SDS011;28261;53.304;-6.284;2022-12-18T00:17:16;37.00;;;15.18;;
42632;SDS011;28261;53.304;-6.284;2022-12-18T00:19:20;36.88;;;16.13;;
42632;SDS011;28261;53.304;-6.284;2022-12-18T00:21:25;35.88;;;16.58;;
42632;SDS011;28261;53.304;-6.284;2022-12-18T00:23:30;35.55;;;17.80;;
42632;SDS011;28261;53.304;-6.284;2022-12-18T00:25:35;35.72;;;16.75;;
42632;SDS011;28261;53.304;-6.284;2022-12-18T00:27:40;34.45;;;15.88;;
42632;SDS011;28261;53.304;-6.284;2022-12-18T00:29:44;35.88;;;14.23;;
42632;SDS011;28261;53.304;-6.284;2022-12-18T00:31:48;27.55;;;12.88;;
42632;SDS011;28261;53.304;-6.284;2022-12-18T00:33:53;22.67;;;11.65;;
42632;SDS011;28261;53.304;-6.284;2022-12-18T00:36:00;23.48;;;12.38;;
42632;SDS011;28261;53.304;-6.284;2022-12-18T00:38:08;27.55;;;12.18;;
42632;SDS011;28261;53.304;-6.284;2022-12-18T00:40:11;31.70;;;11.50;;
42632;SDS011;28261;53.304;-6.284;2022-12-18T00:42:15;29.77;;;11.82;;
42632;SDS011;28261;53.304;-6.284;2022-12-18T00:44:37;22.77;;;11.68;;
42632;SDS011;28261;53.304;-6.284;2022-12-18T00:46:41;25.33;;;9.80;;
42632;SDS011;28261;53.304;-6.284;2022-12-18T00:48:46;14.63;;;6.50;;
42632;SDS011;28261;53.304;-6.284;2022-12-18T00:50:49;15.80;;;5.82;;
42632;SDS011;28261;53.304;-6.284;2022-12-18T00:52:54;16.83;;;6.90;;
42632;SDS011;28261;53.304;-6.284;2022-12-18T00:55:00;14.63;;;4.75;;
42632;SDS011;28261;53.304;-6.284;2022-12-18T00:57:07;12.50;;;4.18;;
42632;SDS011;28261;53.304;-6.284;2022-12-18T00:59:11;11.07;;;3.50;;
42632;SDS011;28261;53.304;-6.284;2022-12-18T01:01:15;6.75;;;3.40;;
42632;SDS011;28261;53.304;-6.284;2022-12-18T01:03:19;10.55;;;3.38;;
42632;SDS011;28261;53.304;-6.284;2022-12-18T01:05:23;10.48;;;3.90;;
42632;SDS011;28261;53.304;-6.284;2022-12-18T01:07:27;9.15;;;2.88;;
42632;SDS011;28261;53.304;-6.284;2022-12-18T01:09:31;9.48;;;3.53;;
42632;SDS011;28261;53.304;-6.284;2022-12-18T01:11:38;17.55;;;3.80;;
42632;SDS011;28261;53.304;-6.284;2022-12-18T01:13:43;12.00;;;3.50;;
42632;SDS011;28261;53.304;-6.284;2022-12-18T01:15:48;7.13;;;3.13;;
42632;SDS011;28261;53.304;-6.284;2022-12-18T01:17:52;10.05;;;3.30;;
42632;SDS011;28261;53.304;-6.284;2022-12-18T01:19:57;12.52;;;3.22;;
42632;SDS011;28261;53.304;-6.284;2022-12-18T01:22:01;16.70;;;3.40;;
42632;SDS011;28261;53.304;-6.284;2022-12-18T01:24:05;15.63;;;3.97;;
42632;SDS011;28261;53.304;-6.284;2022-12-18T01:26:10;14.35;;;3.47;;
42632;SDS011;28261;53.304;-6.284;2022-12-18T01:28:18;9.60;;;3.35;;
42632;SDS011;28261;53.304;-6.284;2022-12-18T01:30:21;7.85;;;3.50;;
42632;SDS011;28261;53.304;-6.284;2022-12-18T01:32:28;10.50;;;3.55;;
42632;SDS011;28261;53.304;-6.284;2022-12-18T01:34:34;6.68;;;3.22;;
42632;SDS011;28261;53.304;-6.284;2022-12-18T01:36:39;8.73;;;3.30;;
42632;SDS011;28261;53.304;-6.284;2022-12-18T01:38:43;15.43;;;3.72;;
42632;SDS011;28261;53.304;-6.284;2022-12-18T01:40:47;12.52;;;3.25;;
42632;SDS011;28261;53.304;-6.284;2022-12-18T01:42:52;10.93;;;3.08;;
42632;SDS011;28261;53.304;-6.284;2022-12-18T01:45:00;20.58;;;3.50;;
42632;SDS011;28261;53.304;-6.284;2022-12-18T01:47:06;14.85;;;3.05;;
42632;SDS011;28261;53.304;-6.284;2022-12-18T01:49:10;7.82;;;3.03;;
42632;SDS011;28261;53.304;-6.284;2022-12-18T01:51:15;10.52;;;2.78;;
42632;SDS011;28261;53.304;-6.284;2022-12-18T01:53:21;12.95;;;2.70;;
42632;SDS011;28261;53.304;-6.284;2022-12-18T01:55:28;11.77;;;2.25;;
42632;SDS011;28261;53.304;-6.284;2022-12-18T01:57:34;9.30;;;2.60;;
42632;SDS011;28261;53.304;-6.284;2022-12-18T01:59:41;6.60;;;2.90;;
42632;SDS011;28261;53.304;-6.284;2022-12-18T02:01:50;10.32;;;3.00;;
42632;SDS011;28261;53.304;-6.284;2022-12-18T02:03:54;13.35;;;2.75;;
42632;SDS011;28261;53.304;-6.284;2022-12-18T02:06:00;15.82;;;2.95;;
42632;SDS011;28261;53.304;-6.284;2022-12-18T02:08:14;16.55;;;2.88;;
42632;SDS011;28261;53.304;-6.284;2022-12-18T02:10:25;12.45;;;2.67;;
42632;SDS011;28261;53.304;-6.284;2022-12-18T02:12:35;6.95;;;2.60;;
42632;SDS011;28261;53.304;-6.284;2022-12-18T02:16:59;13.18;;;2.25;;
42632;SDS011;28261;53.304;-6.284;2022-12-18T02:19:08;10.18;;;2.25;;
42632;SDS011;28261;53.304;-6.284;2022-12-18T02:21:34;13.80;;;2.30;;
42632;SDS011;28261;53.304;-6.284;2022-12-18T02:23:52;8.75;;;1.50;;
42632;SDS011;28261;53.304;-6.284;2022-12-18T02:26:09;8.02;;;1.70;;
42632;SDS011;28261;53.304;-6.284;2022-12-18T02:28:25;11.43;;;1.80;;
42632;SDS011;28261;53.304;-6.284;2022-12-18T02:30:38;11.20;;;3.13;;
42632;SDS011;28261;53.304;-6.284;2022-12-18T02:32:45;19.70;;;5.03;;
42632;SDS011;28261;53.304;-6.284;2022-12-18T02:34:52;19.95;;;3.33;;
42632;SDS011;28261;53.304;-6.284;2022-12-18T02:37:02;14.48;;;1.98;;
42632;SDS011;28261;53.304;-6.284;2022-12-18T02:39:11;11.57;;;1.85;;
42632;SDS011;28261;53.304;-6.284;2022-12-18T02:41:30;17.23;;;2.58;;
42632;SDS011;28261;53.304;-6.284;2022-12-18T02:43:36;11.20;;;2.50;;
42632;SDS011;28261;53.304;-6.284;2022-12-18T02:45:46;14.15;;;2.58;;
42632;SDS011;28261;53.304;-6.284;2022-12-18T02:47:52;12.38;;;2.10;;
42632;SDS011;28261;53.304;-6.284;2022-12-18T02:49:58;7.10;;;2.38;;
42632;SDS011;28261;53.304;-6.284;2022-12-18T02:52:13;11.68;;;2.30;;
42632;SDS011;28261;53.304;-6.284;2022-12-18T02:54:31;8.43;;;1.92;;
42632;SDS011;28261;53.304;-6.284;2022-12-18T02:56:45;22.27;;;2.95;;
42632;SDS011;28261;53.304;-6.284;2022-12-18T02:58:55;18.95;;;2.92;;
42632;SDS011;28261;53.304;-6.284;2022-12-18T03:01:09;20.67;;;2.85;;
42632;SDS011;28261;53.304;-6.284;2022-12-18T03:03:19;17.00;;;3.13;;
42632;SDS011;28261;53.304;-6.284;2022-12-18T03:05:30;14.63;;;3.10;;
42632;SDS011;28261;53.304;-6.284;2022-12-18T03:07:41;15.98;;;3.45;;
42632;SDS011;28261;53.304;-6.284;2022-12-18T03:09:49;23.27;;;3.00;;
42632;SDS011;28261;53.304;-6.284;2022-12-18T03:11:58;19.85;;;3.83;;
42632;SDS011;28261;53.304;-6.284;2022-12-18T03:14:30;17.92;;;3.35;;
42632;SDS011;28261;53.304;-6.284;2022-12-18T03:16:37;17.17;;;3.55;;
42632;SDS011;28261;53.304;-6.284;2022-12-18T03:18:47;18.65;;;3.53;;
42632;SDS011;28261;53.304;-6.284;2022-12-18T03:20:55;14.57;;;3.42;;
42632;SDS011;28261;53.304;-6.284;2022-12-18T03:23:06;21.25;;;3.88;;
42632;SDS011;28261;53.304;-6.284;2022-12-18T03:25:13;10.70;;;3.15;;
42632;SDS011;28261;53.304;-6.284;2022-12-18T03:27:20;17.30;;;4.32;;
42632;SDS011;28261;53.304;-6.284;2022-12-18T03:29:30;19.83;;;3.80;;
42632;SDS011;28261;53.304;-6.284;2022-12-18T03:31:39;19.77;;;4.30;;
42632;SDS011;28261;53.304;-6.284;2022-12-18T03:33:46;19.50;;;3.80;;
42632;SDS011;28261;53.304;-6.284;2022-12-18T03:35:59;17.40;;;4.20;;
42632;SDS011;28261;53.304;-6.284;2022-12-18T03:38:03;18.90;;;4.45;;
42632;SDS011;28261;53.304;-6.284;2022-12-18T03:40:08;14.90;;;5.07;;
42632;SDS011;28261;53.304;-6.284;2022-12-18T03:42:13;24.15;;;4.78;;
42632;SDS011;28261;53.304;-6.284;2022-12-18T03:44:28;19.23;;;4.70;;
42632;SDS011;28261;53.304;-6.284;2022-12-18T03:46:40;24.25;;;5.82;;
42632;SDS011;28261;53.304;-6.284;2022-12-18T03:48:51;17.67;;;5.55;;
42632;SDS011;28261;53.304;-6.284;2022-12-18T03:51:01;20.58;;;5.93;;
42632;SDS011;28261;53.304;-6.284;2022-12-18T03:53:15;18.73;;;6.32;;
42632;SDS011;28261;53.304;-6.284;2022-12-18T03:55:27;23.02;;;6.20;;
42632;SDS011;28261;53.304;-6.284;2022-12-18T03:57:38;13.30;;;5.60;;
42632;SDS011;28261;53.304;-6.284;2022-12-18T03:59:45;26.70;;;6.95;;
42632;SDS011;28261;53.304;-6.284;2022-12-18T04:01:54;23.40;;;6.55;;
42632;SDS011;28261;53.304;-6.284;2022-12-18T04:04:01;22.92;;;7.40;;
42632;SDS011;28261;53.304;-6.284;2022-12-18T04:06:09;26.33;;;8.02;;
42632;SDS011;28261;53.304;-6.284;2022-12-18T04:08:15;20.50;;;6.80;;
42632;SDS011;28261;53.304;-6.284;2022-12-18T04:10:26;21.40;;;7.38;;
42632;SDS011;28261;53.304;-6.284;2022-12-18T04:12:30;26.50;;;8.02;;
42632;SDS011;28261;53.304;-6.284;2022-12-18T04:14:33;21.23;;;7.97;;
42632;SDS011;28261;53.304;-6.284;2022-12-18T04:16:42;30.20;;;8.80;;
42632;SDS011;28261;53.304;-6.284;2022-12-18T04:18:49;23.98;;;8.10;;
42632;SDS011;28261;53.304;-6.284;2022-12-18T04:20:53;31.02;;;9.30;;
42632;SDS011;28261;53.304;-6.284;2022-12-18T04:22:57;23.92;;;8.57;;
42632;SDS011;28261;53.304;-6.284;2022-12-18T04:25:01;24.25;;;9.27;;
42632;SDS011;28261;53.304;-6.284;2022-12-18T04:27:10;29.13;;;8.98;;
42632;SDS011;28261;53.304;-6.284;2022-12-18T04:29:18;29.23;;;9.23;;
42632;SDS011;28261;53.304;-6.284;2022-12-18T04:31:21;24.50;;;8.75;;
42632;SDS011;28261;53.304;-6.284;2022-12-18T04:33:27;29.05;;;9.65;;
42632;SDS011;28261;53.304;-6.284;2022-12-18T04:35:32;29.83;;;9.93;;
42632;SDS011;28261;53.304;-6.284;2022-12-18T04:37:35;36.40;;;9.80;;
42632;SDS011;28261;53.304;-6.284;2022-12-18T04:39:39;29.25;;;9.80;;
42632;SDS011;28261;53.304;-6.284;2022-12-18T04:41:50;32.33;;;10.30;;
42632;SDS011;28261;53.304;-6.284;2022-12-18T04:43:53;27.27;;;9.13;;
42632;SDS011;28261;53.304;-6.284;2022-12-18T04:46:01;33.58;;;9.55;;
42632;SDS011;28261;53.304;-6.284;2022-12-18T04:48:05;30.77;;;9.40;;
42632;SDS011;28261;53.304;-6.284;2022-12-18T04:50:11;32.92;;;9.02;;
42632;SDS011;28261;53.304;-6.284;2022-12-18T04:52:14;37.08;;;9.55;;
42632;SDS011;28261;53.304;-6.284;2022-12-18T04:54:18;33.95;;;9.85;;
42632;SDS011;28261;53.304;-6.284;2022-12-18T04:56:22;29.00;;;9.85;;
42632;SDS011;28261;53.304;-6.284;2022-12-18T04:58:26;38.58;;;10.10;;
42632;SDS011;28261;53.304;-6.284;2022-12-18T05:00:29;31.80;;;9.85;;
42632;SDS011;28261;53.304;-6.284;2022-12-18T05:02:33;31.63;;;9.45;;
42632;SDS011;28261;53.304;-6.284;2022-12-18T05:04:36;29.95;;;8.95;;
42632;SDS011;28261;53.304;-6.284;2022-12-18T05:06:41;32.83;;;10.55;;
42632;SDS011;28261;53.304;-6.284;2022-12-18T05:08:45;29.05;;;8.65;;
42632;SDS011;28261;53.304;-6.284;2022-12-18T05:10:48;32.65;;;9.25;;
42632;SDS011;28261;53.304;-6.284;2022-12-18T05:12:51;35.33;;;9.48;;
42632;SDS011;28261;53.304;-6.284;2022-12-18T05:15:02;34.88;;;10.38;;
42632;SDS011;28261;53.304;-6.284;2022-12-18T05:17:06;39.50;;;8.27;;
42632;SDS011;28261;53.304;-6.284;2022-12-18T05:19:09;25.70;;;9.05;;
42632;SDS011;28261;53.304;-6.284;2022-12-18T05:21:13;32.78;;;8.07;;
42632;SDS011;28261;53.304;-6.284;2022-12-18T05:23:18;22.75;;;8.15;;
42632;SDS011;28261;53.304;-6.284;2022-12-18T05:25:22;27.52;;;8.98;;
42632;SDS011;28261;53.304;-6.284;2022-12-18T05:27:26;29.00;;;9.23;;
42632;SDS011;28261;53.304;-6.284;2022-12-18T05:29:29;39.55;;;8.60;;
42632;SDS011;28261;53.304;-6.284;2022-12-18T05:31:32;39.70;;;9.02;;
42632;SDS011;28261;53.304;-6.284;2022-12-18T05:33:40;38.60;;;9.10;;
42632;SDS011;28261;53.304;-6.284;2022-12-18T05:35:44;25.77;;;8.25;;
42632;SDS011;28261;53.304;-6.284;2022-12-18T05:37:53;25.67;;;8.23;;
42632;SDS011;28261;53.304;-6.284;2022-12-18T05:39:58;29.83;;;9.50;;
42632;SDS011;28261;53.304;-6.284;2022-12-18T05:42:01;30.33;;;8.68;;
42632;SDS011;28261;53.304;-6.284;2022-12-18T05:44:05;28.02;;;8.10;;
42632;SDS011;28261;53.304;-6.284;2022-12-18T05:46:09;31.10;;;8.40;;
42632;SDS011;28261;53.304;-6.284;2022-12-18T05:48:14;33.88;;;8.95;;
42632;SDS011;28261;53.304;-6.284;2022-12-18T05:50:19;33.58;;;8.85;;
42632;SDS011;28261;53.304;-6.284;2022-12-18T05:52:22;29.75;;;8.48;;
42632;SDS011;28261;53.304;-6.284;2022-12-18T05:54:26;25.52;;;7.85;;
42632;SDS011;28261;53.304;-6.284;2022-12-18T05:56:31;23.77;;;7.85;;
42632;SDS011;28261;53.304;-6.284;2022-12-18T05:58:35;38.33;;;8.45;;
42632;SDS011;28261;53.304;-6.284;2022-12-18T06:00:40;35.72;;;8.30;;
42632;SDS011;28261;53.304;-6.284;2022-12-18T06:02:46;31.05;;;8.40;;
42632;SDS011;28261;53.304;-6.284;2022-12-18T06:04:50;28.48;;;8.13;;
42632;SDS011;28261;53.304;-6.284;2022-12-18T06:06:53;22.25;;;7.93;;
42632;SDS011;28261;53.304;-6.284;2022-12-18T06:08:57;28.40;;;7.97;;
42632;SDS011;28261;53.304;-6.284;2022-12-18T06:11:01;35.95;;;9.23;;
42632;SDS011;28261;53.304;-6.284;2022-12-18T06:13:06;30.88;;;7.80;;
42632;SDS011;28261;53.304;-6.284;2022-12-18T06:15:10;27.50;;;7.80;;
42632;SDS011;28261;53.304;-6.284;2022-12-18T06:17:14;28.40;;;8.05;;
42632;SDS011;28261;53.304;-6.284;2022-12-18T06:19:18;28.23;;;9.05;;
42632;SDS011;28261;53.304;-6.284;2022-12-18T06:21:21;29.80;;;9.02;;
42632;SDS011;28261;53.304;-6.284;2022-12-18T06:23:25;25.75;;;8.70;;
42632;SDS011;28261;53.304;-6.284;2022-12-18T06:25:29;30.50;;;8.38;;
42632;SDS011;28261;53.304;-6.284;2022-12-18T06:27:32;23.63;;;8.15;;
42632;SDS011;28261;53.304;-6.284;2022-12-18T06:29:37;35.33;;;8.35;;
42632;SDS011;28261;53.304;-6.284;2022-12-18T06:31:41;31.63;;;7.75;;
42632;SDS011;28261;53.304;-6.284;2022-12-18T06:33:45;41.63;;;7.80;;
42632;SDS011;28261;53.304;-6.284;2022-12-18T06:35:49;25.58;;;7.88;;
42632;SDS011;28261;53.304;-6.284;2022-12-18T06:38:00;30.17;;;7.75;;
42632;SDS011;28261;53.304;-6.284;2022-12-18T06:40:05;19.67;;;6.57;;
42632;SDS011;28261;53.304;-6.284;2022-12-18T06:42:09;21.42;;;6.47;;
42632;SDS011;28261;53.304;-6.284;2022-12-18T06:44:13;38.83;;;7.47;;
42632;SDS011;28261;53.304;-6.284;2022-12-18T06:46:18;23.05;;;5.80;;
42632;SDS011;28261;53.304;-6.284;2022-12-18T06:48:22;23.58;;;5.95;;
42632;SDS011;28261;53.304;-6.284;2022-12-18T06:50:25;15.20;;;4.93;;
42632;SDS011;28261;53.304;-6.284;2022-12-18T06:52:31;18.25;;;5.78;;
42632;SDS011;28261;53.304;-6.284;2022-12-18T06:54:35;18.27;;;5.30;;
42632;SDS011;28261;53.304;-6.284;2022-12-18T06:56:38;24.15;;;5.68;;
42632;SDS011;28261;53.304;-6.284;2022-12-18T06:58:42;17.48;;;5.88;;
42632;SDS011;28261;53.304;-6.284;2022-12-18T07:00:46;17.50;;;4.68;;
42632;SDS011;28261;53.304;-6.284;2022-12-18T07:02:52;21.95;;;5.03;;
42632;SDS011;28261;53.304;-6.284;2022-12-18T07:04:56;20.23;;;5.32;;
42632;SDS011;28261;53.304;-6.284;2022-12-18T07:07:00;14.18;;;4.45;;
42632;SDS011;28261;53.304;-6.284;2022-12-18T07:09:03;17.70;;;4.40;;
42632;SDS011;28261;53.304;-6.284;2022-12-18T07:11:06;14.70;;;4.10;;
42632;SDS011;28261;53.304;-6.284;2022-12-18T07:13:10;14.68;;;3.10;;
42632;SDS011;28261;53.304;-6.284;2022-12-18T07:15:14;15.40;;;3.63;;
42632;SDS011;28261;53.304;-6.284;2022-12-18T07:17:17;10.77;;;3.10;;
42632;SDS011;28261;53.304;-6.284;2022-12-18T07:19:22;14.40;;;4.47;;
42632;SDS011;28261;53.304;-6.284;2022-12-18T07:21:25;16.60;;;3.85;;
42632;SDS011;28261;53.304;-6.284;2022-12-18T07:23:29;8.77;;;3.92;;
42632;SDS011;28261;53.304;-6.284;2022-12-18T07:25:33;10.65;;;3.58;;
42632;SDS011;28261;53.304;-6.284;2022-12-18T07:27:37;14.27;;;4.15;;
42632;SDS011;28261;53.304;-6.284;2022-12-18T07:29:41;14.25;;;3.85;;
42632;SDS011;28261;53.304;-6.284;2022-12-18T07:31:44;18.13;;;4.20;;
42632;SDS011;28261;53.304;-6.284;2022-12-18T07:33:48;20.40;;;4.65;;
42632;SDS011;28261;53.304;-6.284;2022-12-18T07:35:54;20.92;;;4.93;;
42632;SDS011;28261;53.304;-6.284;2022-12-18T07:37:57;17.00;;;5.35;;
42632;SDS011;28261;53.304;-6.284;2022-12-18T07:40:00;23.05;;;6.32;;
42632;SDS011;28261;53.304;-6.284;2022-12-18T07:42:04;17.23;;;5.78;;
42632;SDS011;28261;53.304;-6.284;2022-12-18T07:44:33;22.50;;;6.43;;
42632;SDS011;28261;53.304;-6.284;2022-12-18T07:46:37;19.92;;;5.68;;
42632;SDS011;28261;53.304;-6.284;2022-12-18T07:48:42;16.40;;;5.85;;
42632;SDS011;28261;53.304;-6.284;2022-12-18T07:50:50;27.98;;;6.70;;
42632;SDS011;28261;53.304;-6.284;2022-12-18T07:52:55;23.30;;;6.20;;
42632;SDS011;28261;53.304;-6.284;2022-12-18T07:54:59;20.05;;;5.95;;
42632;SDS011;28261;53.304;-6.284;2022-12-18T07:57:03;26.85;;;7.43;;
42632;SDS011;28261;53.304;-6.284;2022-12-18T08:01:29;23.08;;;6.47;;
42632;SDS011;28261;53.304;-6.284;2022-12-18T08:03:33;11.57;;;4.32;;
42632;SDS011;28261;53.304;-6.284;2022-12-18T08:05:38;25.98;;;7.20;;
42632;SDS011;28261;53.304;-6.284;2022-12-18T08:07:41;19.77;;;7.32;;
42632;SDS011;28261;53.304;-6.284;2022-12-18T08:09:46;23.00;;;7.30;;
42632;SDS011;28261;53.304;-6.284;2022-12-18T08:11:50;20.48;;;7.53;;
42632;SDS011;28261;53.304;-6.284;2022-12-18T08:13:54;26.83;;;8.20;;
42632;SDS011;28261;53.304;-6.284;2022-12-18T08:15:59;21.92;;;7.93;;
42632;SDS011;28261;53.304;-6.284;2022-12-18T08:18:03;26.13;;;7.35;;
42632;SDS011;28261;53.304;-6.284;2022-12-18T08:20:14;22.00;;;7.18;;
42632;SDS011;28261;53.304;-6.284;2022-12-18T08:22:19;22.55;;;7.53;;
42632;SDS011;28261;53.304;-6.284;2022-12-18T08:24:23;23.80;;;7.80;;
42632;SDS011;28261;53.304;-6.284;2022-12-18T08:26:29;22.27;;;7.97;;
42632;SDS011;28261;53.304;-6.284;2022-12-18T08:28:34;24.27;;;6.82;;
42632;SDS011;28261;53.304;-6.284;2022-12-18T08:30:37;21.02;;;7.68;;
42632;SDS011;28261;53.304;-6.284;2022-12-18T08:32:41;16.40;;;6.70;;
42632;SDS011;28261;53.304;-6.284;2022-12-18T08:34:45;24.92;;;8.52;;
42632;SDS011;28261;53.304;-6.284;2022-12-18T08:36:49;28.83;;;8.73;;
42632;SDS011;28261;53.304;-6.284;2022-12-18T08:38:53;18.05;;;7.03;;
42632;SDS011;28261;53.304;-6.284;2022-12-18T08:40:58;22.70;;;7.95;;
42632;SDS011;28261;53.304;-6.284;2022-12-18T08:43:04;18.38;;;7.72;;
42632;SDS011;28261;53.304;-6.284;2022-12-18T08:45:26;28.25;;;7.05;;
42632;SDS011;28261;53.304;-6.284;2022-12-18T08:47:30;20.83;;;7.30;;
42632;SDS011;28261;53.304;-6.284;2022-12-18T08:49:34;17.05;;;7.05;;
42632;SDS011;28261;53.304;-6.284;2022-12-18T08:51:38;19.45;;;7.82;;
42632;SDS011;28261;53.304;-6.284;2022-12-18T08:53:43;18.30;;;7.38;;
42632;SDS011;28261;53.304;-6.284;2022-12-18T08:55:48;23.48;;;7.97;;
42632;SDS011;28261;53.304;-6.284;2022-12-18T08:57:52;14.52;;;5.60;;
42632;SDS011;28261;53.304;-6.284;2022-12-18T08:59:57;21.52;;;6.95;;
42632;SDS011;28261;53.304;-6.284;2022-12-18T09:02:01;21.33;;;7.85;;
42632;SDS011;28261;53.304;-6.284;2022-12-18T09:04:05;13.43;;;6.57;;
42632;SDS011;28261;53.304;-6.284;2022-12-18T09:06:13;17.67;;;7.25;;
42632;SDS011;28261;53.304;-6.284;2022-12-18T09:08:18;18.60;;;7.55;;
42632;SDS011;28261;53.304;-6.284;2022-12-18T09:10:23;22.33;;;7.32;;
42632;SDS011;28261;53.304;-6.284;2022-12-18T09:12:27;17.65;;;6.85;;
42632;SDS011;28261;53.304;-6.284;2022-12-18T09:14:31;12.85;;;5.28;;
42632;SDS011;28261;53.304;-6.284;2022-12-18T09:16:36;17.75;;;5.93;;
42632;SDS011;28261;53.304;-6.284;2022-12-18T09:18:41;15.77;;;5.70;;
42632;SDS011;28261;53.304;-6.284;2022-12-18T09:20:45;11.60;;;5.00;;
42632;SDS011;28261;53.304;-6.284;2022-12-18T09:22:49;10.07;;;3.80;;
42632;SDS011;28261;53.304;-6.284;2022-12-18T09:24:56;11.65;;;4.40;;
42632;SDS011;28261;53.304;-6.284;2022-12-18T09:27:01;10.43;;;3.72;;
42632;SDS011;28261;53.304;-6.284;2022-12-18T09:29:05;8.52;;;3.97;;
42632;SDS011;28261;53.304;-6.284;2022-12-18T09:31:10;9.52;;;4.25;;
42632;SDS011;28261;53.304;-6.284;2022-12-18T09:33:17;13.55;;;4.45;;
42632;SDS011;28261;53.304;-6.284;2022-12-18T09:35:24;20.55;;;5.03;;
42632;SDS011;28261;53.304;-6.284;2022-12-18T09:37:29;8.77;;;4.18;;
42632;SDS011;28261;53.304;-6.284;2022-12-18T09:39:33;12.32;;;3.83;;
42632;SDS011;28261;53.304;-6.284;2022-12-18T09:41:39;14.48;;;4.28;;
42632;SDS011;28261;53.304;-6.284;2022-12-18T09:43:48;6.60;;;3.58;;
42632;SDS011;28261;53.304;-6.284;2022-12-18T09:45:56;11.55;;;4.00;;
42632;SDS011;28261;53.304;-6.284;2022-12-18T09:48:04;9.82;;;4.95;;
42632;SDS011;28261;53.304;-6.284;2022-12-18T09:50:23;7.95;;;3.70;;
42632;SDS011;28261;53.304;-6.284;2022-12-18T09:52:33;7.55;;;3.25;;
42632;SDS011;28261;53.304;-6.284;2022-12-18T09:54:40;7.97;;;3.88;;
42632;SDS011;28261;53.304;-6.284;2022-12-18T09:56:47;15.95;;;4.65;;
42632;SDS011;28261;53.304;-6.284;2022-12-18T09:58:52;6.40;;;3.03;;
42632;SDS011;28261;53.304;-6.284;2022-12-18T10:01:00;8.77;;;3.17;;
42632;SDS011;28261;53.304;-6.284;2022-12-18T10:03:08;4.80;;;2.45;;
42632;SDS011;28261;53.304;-6.284;2022-12-18T10:05:15;6.78;;;3.00;;
42632;SDS011;28261;53.304;-6.284;2022-12-18T10:07:34;11.38;;;3.00;;
42632;SDS011;28261;53.304;-6.284;2022-12-18T10:09:52;6.65;;;3.10;;
42632;SDS011;28261;53.304;-6.284;2022-12-18T10:12:05;6.47;;;3.17;;
42632;SDS011;28261;53.304;-6.284;2022-12-18T10:14:15;5.18;;;2.42;;
42632;SDS011;28261;53.304;-6.284;2022-12-18T10:16:27;8.48;;;3.10;;
42632;SDS011;28261;53.304;-6.284;2022-12-18T10:18:50;9.50;;;3.25;;
42632;SDS011;28261;53.304;-6.284;2022-12-18T10:21:06;11.15;;;3.05;;
42632;SDS011;28261;53.304;-6.284;2022-12-18T10:23:16;10.13;;;3.17;;
42632;SDS011;28261;53.304;-6.284;2022-12-18T10:25:27;7.53;;;3.10;;
42632;SDS011;28261;53.304;-6.284;2022-12-18T10:27:38;7.18;;;3.50;;
42632;SDS011;28261;53.304;-6.284;2022-12-18T10:29:42;7.82;;;3.70;;
42632;SDS011;28261;53.304;-6.284;2022-12-18T10:31:48;9.32;;;3.35;;
42632;SDS011;28261;53.304;-6.284;2022-12-18T10:33:53;12.13;;;3.65;;
42632;SDS011;28261;53.304;-6.284;2022-12-18T10:35:58;8.25;;;3.70;;
42632;SDS011;28261;53.304;-6.284;2022-12-18T10:38:05;10.77;;;3.78;;
42632;SDS011;28261;53.304;-6.284;2022-12-18T10:40:12;7.15;;;3.60;;
42632;SDS011;28261;53.304;-6.284;2022-12-18T10:42:23;11.40;;;4.10;;
42632;SDS011;28261;53.304;-6.284;2022-12-18T10:44:27;8.05;;;3.95;;
42632;SDS011;28261;53.304;-6.284;2022-12-18T10:46:30;10.15;;;4.10;;
42632;SDS011;28261;53.304;-6.284;2022-12-18T10:48:36;9.10;;;4.20;;
42632;SDS011;28261;53.304;-6.284;2022-12-18T10:50:51;8.77;;;4.47;;
42632;SDS011;28261;53.304;-6.284;2022-12-18T10:53:16;10.63;;;5.65;;
42632;SDS011;28261;53.304;-6.284;2022-12-18T10:55:23;22.60;;;5.90;;
42632;SDS011;28261;53.304;-6.284;2022-12-18T10:57:32;13.77;;;5.03;;
42632;SDS011;28261;53.304;-6.284;2022-12-18T10:59:49;16.92;;;6.05;;
42632;SDS011;28261;53.304;-6.284;2022-12-18T11:01:55;11.88;;;4.95;;
42632;SDS011;28261;53.304;-6.284;2022-12-18T11:04:01;10.38;;;4.03;;
42632;SDS011;28261;53.304;-6.284;2022-12-18T11:06:11;9.55;;;4.32;;
42632;SDS011;28261;53.304;-6.284;2022-12-18T11:08:20;14.85;;;5.63;;
42632;SDS011;28261;53.304;-6.284;2022-12-18T11:10:27;14.82;;;4.93;;
42632;SDS011;28261;53.304;-6.284;2022-12-18T11:12:34;16.35;;;5.75;;
42632;SDS011;28261;53.304;-6.284;2022-12-18T11:14:42;10.75;;;5.20;;
42632;SDS011;28261;53.304;-6.284;2022-12-18T11:16:49;9.18;;;4.10;;
42632;SDS011;28261;53.304;-6.284;2022-12-18T11:19:20;11.82;;;5.22;;
42632;SDS011;28261;53.304;-6.284;2022-12-18T11:21:29;16.90;;;4.88;;
42632;SDS011;28261;53.304;-6.284;2022-12-18T11:23:34;11.18;;;3.92;;
42632;SDS011;28261;53.304;-6.284;2022-12-18T11:25:40;8.23;;;3.35;;
42632;SDS011;28261;53.304;-6.284;2022-12-18T11:27:56;7.25;;;3.97;;
42632;SDS011;28261;53.304;-6.284;2022-12-18T11:30:09;12.05;;;3.90;;
42632;SDS011;28261;53.304;-6.284;2022-12-18T11:32:27;8.02;;;3.92;;
42632;SDS011;28261;53.304;-6.284;2022-12-18T11:34:36;9.27;;;3.70;;
42632;SDS011;28261;53.304;-6.284;2022-12-18T11:36:41;9.40;;;3.50;;
42632;SDS011;28261;53.304;-6.284;2022-12-18T11:38:49;9.57;;;4.63;;
42632;SDS011;28261;53.304;-6.284;2022-12-18T11:40:58;5.68;;;2.05;;
42632;SDS011;28261;53.304;-6.284;2022-12-18T11:43:07;6.68;;;1.85;;
42632;SDS011;28261;53.304;-6.284;2022-12-18T11:45:27;4.35;;;1.40;;
42632;SDS011;28261;53.304;-6.284;2022-12-18T11:47:36;4.75;;;1.88;;
42632;SDS011;28261;53.304;-6.284;2022-12-18T11:49:43;2.95;;;1.00;;
42632;SDS011;28261;53.304;-6.284;2022-12-18T11:51:48;2.10;;;1.00;;
42632;SDS011;28261;53.304;-6.284;2022-12-18T11:53:57;2.60;;;0.90;;
42632;SDS011;28261;53.304;-6.284;2022-12-18T11:56:05;3.15;;;1.00;;
42632;SDS011;28261;53.304;-6.284;2022-12-18T11:58:32;2.13;;;1.13;;
42632;SDS011;28261;53.304;-6.284;2022-12-18T12:00:51;2.97;;;1.35;;
42632;SDS011;28261;53.304;-6.284;2022-12-18T12:03:08;2.05;;;1.33;;
42632;SDS011;28261;53.304;-6.284;2022-12-18T12:05:33;5.40;;;1.38;;
42632;SDS011;28261;53.304;-6.284;2022-12-18T12:07:46;3.72;;;1.08;;
42632;SDS011;28261;53.304;-6.284;2022-12-18T12:10:01;12.23;;;7.47;;
42632;SDS011;28261;53.304;-6.284;2022-12-18T12:12:17;6.78;;;1.33;;
42632;SDS011;28261;53.304;-6.284;2022-12-18T12:14:37;5.18;;;1.20;;
42632;SDS011;28261;53.304;-6.284;2022-12-18T12:16:49;2.28;;;0.70;;
42632;SDS011;28261;53.304;-6.284;2022-12-18T12:19:03;2.35;;;0.88;;
42632;SDS011;28261;53.304;-6.284;2022-12-18T12:21:20;3.90;;;0.93;;
42632;SDS011;28261;53.304;-6.284;2022-12-18T12:23:34;4.00;;;0.90;;
42632;SDS011;28261;53.304;-6.284;2022-12-18T12:25:48;3.20;;;1.00;;
42632;SDS011;28261;53.304;-6.284;2022-12-18T12:28:02;2.80;;;0.90;;
42632;SDS011;28261;53.304;-6.284;2022-12-18T12:30:24;1.73;;;1.05;;